Time;durP1;ratioP1;P1;durP2;ratioP2;P2;SDS_P1;SDS_P2;PMS_P1;PMS_P2;Temp;Humidity;BMP_temperature;BMP_pressure;BME280_temperature;BME280_humidity;BME280_pressure;Samples;Min_cycle;Max_cycle;Signal;HPM_P1;HPM_P2
2022/03/29 00:00:12;;;;;;;37.60;19.77;;;;;;;6.57;100.00;101507.25;10204896;28;20107;-66
2022/03/29 00:05:08;;;;;;;35.65;20.92;;;;;;;6.46;100.00;101501.84;10205226;28;20099;-65
2022/03/29 00:10:06;;;;;;;36.60;19.17;;;;;;;6.38;100.00;101488.78;10206071;28;20189;-67
2022/03/29 00:15:06;;;;;;;36.70;20.40;;;;;;;6.37;100.00;101480.91;10201168;28;20049;-66
2022/03/29 00:20:03;;;;;;;37.33;20.10;;;;;;;6.43;100.00;101477.94;10212044;28;20530;-66
2022/03/29 00:25:00;;;;;;;40.50;21.83;;;;;;;6.43;100.00;101469.78;10214392;28;20054;-66
2022/03/29 00:29:56;;;;;;;37.53;20.23;;;;;;;6.35;100.00;101473.03;10203669;28;20084;-66
2022/03/29 00:34:53;;;;;;;37.42;21.65;;;;;;;6.38;100.00;101461.63;10206605;28;20050;-66
2022/03/29 00:39:49;;;;;;;38.50;20.88;;;;;;;6.41;100.00;101455.66;10207730;28;20050;-65
2022/03/29 00:44:46;;;;;;;37.08;21.55;;;;;;;6.47;100.00;101443.69;10210457;28;20045;-65
2022/03/29 00:49:42;;;;;;;39.70;20.77;;;;;;;6.56;100.00;101435.00;10212386;28;20113;-65
2022/03/29 00:54:43;;;;;;;42.15;23.13;;;;;;;6.60;100.00;101430.66;10212961;28;20099;-65
2022/03/29 00:59:41;;;;;;;40.70;21.38;;;;;;;6.58;100.00;101427.41;10211831;28;20042;-65
2022/03/29 01:04:38;;;;;;;40.92;20.38;;;;;;;6.58;100.00;101421.97;10201987;28;20041;-66
2022/03/29 01:09:34;;;;;;;40.08;20.88;;;;;;;6.59;100.00;101404.56;10210264;28;20176;-66
2022/03/29 01:14:32;;;;;;;40.83;20.33;;;;;;;6.47;100.00;101400.22;10212689;28;20403;-65
2022/03/29 01:19:29;;;;;;;40.17;19.98;;;;;;;6.45;100.00;101397.00;10224138;28;20111;-65
2022/03/29 01:24:26;;;;;;;33.33;18.75;;;;;;;6.60;100.00;101393.44;10217057;28;20069;-66
2022/03/29 01:29:23;;;;;;;40.58;20.17;;;;;;;6.60;100.00;101398.06;10216175;28;20503;-67
2022/03/29 01:34:20;;;;;;;36.88;20.52;;;;;;;6.61;100.00;101383.38;10213035;28;20607;-65
2022/03/29 01:39:17;;;;;;;49.85;18.95;;;;;;;6.39;100.00;101379.06;10208969;28;20140;-65
2022/03/29 01:44:14;;;;;;;34.95;18.90;;;;;;;6.49;100.00;101373.59;10210897;28;20690;-66
2022/03/29 01:49:10;;;;;;;34.75;18.13;;;;;;;6.59;100.00;101363.81;10215844;28;20128;-65
2022/03/29 01:54:06;;;;;;;35.28;16.83;;;;;;;6.58;100.00;101367.63;10212103;28;20050;-66
2022/03/29 01:59:06;;;;;;;26.73;14.00;;;;;;;6.55;100.00;101368.19;10208419;28;20108;-66
2022/03/29 02:04:02;;;;;;;32.42;17.40;;;;;;;6.57;100.00;101360.53;10206478;28;20120;-66
2022/03/29 02:08:59;;;;;;;31.45;16.95;;;;;;;6.57;100.00;101365.97;10214052;28;20042;-66
2022/03/29 02:13:55;;;;;;;30.63;16.60;;;;;;;6.50;100.00;101356.22;10210693;28;20111;-66
2022/03/29 02:18:52;;;;;;;31.38;15.48;;;;;;;6.45;100.00;101348.09;10206081;28;20081;-66
2022/03/29 02:23:48;;;;;;;24.73;12.10;;;;;;;6.56;100.00;101342.63;10202709;28;20054;-66
2022/03/29 02:28:45;;;;;;;22.75;11.43;;;;;;;6.46;100.00;101349.72;10206213;28;20064;-65
2022/03/29 02:33:41;;;;;;;20.00;8.75;;;;;;;6.41;100.00;101347.00;10207757;28;20084;-67
2022/03/29 02:38:38;;;;;;;22.58;9.02;;;;;;;6.50;100.00;101342.66;10199740;28;20484;-66
2022/03/29 02:43:34;;;;;;;18.80;9.85;;;;;;;6.47;100.00;101335.03;10200976;28;20060;-66
2022/03/29 02:48:31;;;;;;;25.92;11.52;;;;;;;6.56;100.00;101337.19;10207701;28;20099;-65
2022/03/29 02:53:28;;;;;;;20.98;9.95;;;;;;;6.37;100.00;101329.63;10205153;28;20046;-65
2022/03/29 02:58:24;;;;;;;18.50;10.18;;;;;;;6.29;100.00;101327.47;10196070;28;20504;-65
2022/03/29 03:03:21;;;;;;;22.10;9.20;;;;;;;6.18;100.00;101331.28;10195008;28;20049;-65
2022/03/29 03:08:17;;;;;;;17.20;7.57;;;;;;;5.96;100.00;101323.41;10198501;28;20128;-66
2022/03/29 03:13:14;;;;;;;18.13;8.15;;;;;;;5.96;100.00;101328.84;10205179;28;20533;-65
2022/03/29 03:18:12;;;;;;;18.85;7.95;;;;;;;5.86;100.00;101324.19;10211189;28;20046;-66
2022/03/29 03:23:08;;;;;;;23.92;8.68;;;;;;;5.81;100.00;101332.34;10206944;28;20108;-67
2022/03/29 03:28:05;;;;;;;21.55;8.40;;;;;;;5.72;100.00;101333.97;10194597;28;20084;-67
2022/03/29 03:33:02;;;;;;;22.80;9.00;;;;;;;5.63;100.00;101337.19;10208182;28;20092;-64
2022/03/29 03:37:59;;;;;;;22.20;8.73;;;;;;;5.50;100.00;101337.75;10200928;28;20053;-64
2022/03/29 03:42:55;;;;;;;19.08;7.13;;;;;;;5.49;100.00;101331.47;10228343;28;20079;-64
2022/03/29 03:47:52;;;;;;;28.73;7.10;;;;;;;5.44;100.00;101333.38;10213786;28;20916;-64
2022/03/29 03:52:49;;;;;;;25.48;5.88;;;;;;;5.43;100.00;101326.31;10226495;28;20161;-64
2022/03/29 03:57:46;;;;;;;28.23;5.50;;;;;;;5.40;100.00;101324.16;10212439;28;20045;-65
2022/03/29 04:02:43;;;;;;;27.58;5.55;;;;;;;5.21;100.00;101332.78;10207053;28;20131;-64
2022/03/29 04:07:40;;;;;;;30.63;4.57;;;;;;;5.07;100.00;101328.94;10213728;28;20798;-64
2022/03/29 04:12:37;;;;;;;25.45;4.47;;;;;;;5.03;100.00;101330.53;10223911;28;20073;-64
2022/03/29 04:17:34;;;;;;;33.30;4.47;;;;;;;5.04;100.00;101322.16;10215430;28;20065;-64
2022/03/29 04:22:30;;;;;;;28.88;4.60;;;;;;;4.89;100.00;101321.28;10202125;28;20073;-64
2022/03/29 04:27:27;;;;;;;22.95;3.80;;;;;;;4.92;100.00;101321.56;10196208;28;20115;-64
2022/03/29 04:32:23;;;;;;;25.90;5.10;;;;;;;4.88;100.00;101319.66;10215987;28;20050;-64
2022/03/29 04:37:20;;;;;;;36.22;5.32;;;;;;;4.89;100.00;101319.38;10227711;28;20184;-63
2022/03/29 04:42:18;;;;;;;32.53;5.30;;;;;;;4.68;100.00;101313.06;10219013;28;20528;-64
2022/03/29 04:47:15;;;;;;;25.85;5.13;;;;;;;4.69;100.00;101300.31;10210977;28;20057;-65
2022/03/29 04:52:12;;;;;;;23.95;4.82;;;;;;;4.69;100.00;101306.56;10215211;28;20073;-64
2022/03/29 04:57:08;;;;;;;28.02;5.82;;;;;;;4.62;100.00;101306.00;10215110;28;20080;-64
2022/03/29 05:02:05;;;;;;;24.02;4.50;;;;;;;4.53;100.00;101308.38;10233095;28;20073;-64
2022/03/29 05:07:01;;;;;;;34.20;5.18;;;;;;;4.48;100.00;101304.81;10222794;28;20081;-64
2022/03/29 05:11:59;;;;;;;34.47;4.82;;;;;;;4.37;100.00;101299.34;10187964;28;20060;-64
2022/03/29 05:16:55;;;;;;;32.60;5.43;;;;;;;4.40;100.00;101304.25;10201014;28;20083;-65
2022/03/29 05:21:52;;;;;;;30.17;4.50;;;;;;;4.50;100.00;101302.66;10198113;28;20070;-65
2022/03/29 05:26:48;;;;;;;26.05;4.53;;;;;;;4.34;100.00;101299.91;10207141;28;20065;-65
2022/03/29 05:31:45;;;;;;;22.35;4.25;;;;;;;4.23;100.00;101298.19;10206881;28;20088;-64
2022/03/29 05:36:44;;;;;;;33.20;4.07;;;;;;;4.30;100.00;101296.06;10210464;28;20045;-65
2022/03/29 05:41:41;;;;;;;32.47;4.05;;;;;;;4.28;100.00;101294.72;10207460;28;20054;-64
2022/03/29 05:51:53;;;;;;;17.95;3.28;;;;;;;4.28;100.00;101298.22;10213524;28;20110;-64
2022/03/29 05:56:49;;;;;;;26.20;4.82;;;;;;;4.29;100.00;101307.16;10228964;28;20080;-64
2022/03/29 06:01:46;;;;;;;21.63;4.05;;;;;;;4.37;100.00;101302.06;10221899;28;20507;-63
2022/03/29 06:06:44;;;;;;;27.52;4.03;;;;;;;4.36;100.00;101303.16;10221594;28;20054;-64
2022/03/29 06:11:41;;;;;;;25.10;4.20;;;;;;;4.41;100.00;101295.06;10189806;28;20181;-64
2022/03/29 06:16:37;;;;;;;22.63;3.58;;;;;;;4.44;100.00;101307.25;10206852;28;20465;-64
2022/03/29 06:21:36;;;;;;;23.17;4.10;;;;;;;4.50;100.00;101308.09;10192948;28;20156;-64
2022/03/29 06:26:33;;;;;;;20.63;3.25;;;;;;;4.64;100.00;101292.97;10201514;28;20049;-64
2022/03/29 06:31:29;;;;;;;28.10;5.10;;;;;;;4.59;100.00;101295.69;10196915;28;20495;-61
2022/03/29 06:36:26;;;;;;;29.27;2.67;;;;;;;4.57;100.00;101297.84;10204771;28;20045;-62
2022/03/29 06:41:23;;;;;;;19.70;3.80;;;;;;;4.51;100.00;101288.88;10201988;28;20125;-63
2022/03/29 06:46:19;;;;;;;22.27;3.80;;;;;;;4.58;100.00;101294.06;10192000;28;20820;-63
2022/03/29 06:51:17;;;;;;;31.02;3.85;;;;;;;4.70;100.00;101286.53;10196823;28;20046;-63
2022/03/29 06:56:16;;;;;;;17.75;2.38;;;;;;;4.72;100.00;101292.50;10194717;28;20136;-66
2022/03/29 07:01:13;;;;;;;19.98;2.85;;;;;;;4.69;100.00;101295.75;10193432;28;20470;-63
2022/03/29 07:06:10;;;;;;;17.88;2.92;;;;;;;4.87;100.00;101294.44;10188293;28;20418;-65
2022/03/29 07:11:21;;;;;;;21.55;3.78;;;;;;;4.89;100.00;101286.88;10213139;28;20467;-65
2022/03/29 07:16:17;;;;;;;22.65;2.65;;;;;;;4.91;100.00;101286.59;10234452;28;20088;-65
2022/03/29 07:21:16;;;;;;;15.18;2.58;;;;;;;5.00;100.00;101285.81;10232087;28;20053;-65
2022/03/29 07:26:12;;;;;;;20.95;2.03;;;;;;;5.04;100.00;101280.69;10229945;28;20084;-65
2022/03/29 07:31:09;;;;;;;20.50;2.22;;;;;;;5.15;100.00;101282.34;10194996;28;20073;-65
2022/03/29 07:36:06;;;;;;;16.35;2.20;;;;;;;5.11;100.00;101281.25;10204585;28;20119;-65
2022/03/29 07:41:03;;;;;;;19.33;3.70;;;;;;;5.30;100.00;101283.47;10215324;28;20057;-65
2022/03/29 07:45:59;;;;;;;14.65;2.88;;;;;;;5.51;100.00;101274.25;10221456;28;20061;-65
2022/03/29 07:50:56;;;;;;;20.02;2.85;;;;;;;5.55;100.00;101275.34;10199611;28;20080;-65
2022/03/29 07:55:54;;;;;;;16.85;2.45;;;;;;;5.58;100.00;101268.56;10228413;28;20076;-65
2022/03/29 08:00:51;;;;;;;15.70;2.10;;;;;;;5.67;100.00;101267.75;10204329;28;20507;-65
2022/03/29 08:05:49;;;;;;;22.17;3.05;;;;;;;5.89;100.00;101272.09;10194736;28;20129;-65
2022/03/29 08:10:47;;;;;;;11.45;2.53;;;;;;;5.80;100.00;101276.44;10198798;28;20147;-65
2022/03/29 08:15:47;;;;;;;12.23;1.60;;;;;;;5.94;100.00;101271.25;10234267;28;20564;-65
2022/03/29 08:20:43;;;;;;;13.70;1.88;;;;;;;5.97;100.00;101260.72;10207102;28;20060;-65
2022/03/29 08:25:44;;;;;;;12.20;2.20;;;;;;;6.14;100.00;101254.97;10192579;28;20042;-65
2022/03/29 08:30:42;;;;;;;11.10;1.88;;;;;;;6.24;100.00;101259.56;10197597;28;20042;-65
2022/03/29 08:35:39;;;;;;;13.77;1.40;;;;;;;6.14;100.00;101248.75;10227564;28;20073;-65
2022/03/29 08:40:36;;;;;;;15.50;1.90;;;;;;;6.17;100.00;101253.63;10221119;28;20169;-65
2022/03/29 08:45:34;;;;;;;13.63;1.88;;;;;;;6.47;100.00;101236.41;10199986;28;20054;-65
2022/03/29 08:50:36;;;;;;;16.15;2.03;;;;;;;6.50;100.00;101241.31;10216996;28;20072;-65
2022/03/29 08:55:32;;;;;;;16.98;1.95;;;;;;;6.58;100.00;101221.72;10233285;28;20041;-65
2022/03/29 09:00:29;;;;;;;9.55;1.80;;;;;;;6.62;100.00;101222.78;10231060;28;20049;-65
2022/03/29 09:05:30;;;;;;;8.82;1.58;;;;;;;7.10;100.00;101219.50;10194428;28;20045;-65
2022/03/29 09:10:40;;;;;;;15.27;2.05;;;;;;;7.38;100.00;101224.22;10204643;28;20869;-65
2022/03/29 09:15:36;;;;;;;12.70;1.90;;;;;;;7.25;100.00;101226.78;10202066;28;20049;-65
2022/03/29 09:20:33;;;;;;;11.02;1.80;;;;;;;7.12;99.78;101217.31;10207135;28;20073;-65
2022/03/29 09:25:46;;;;;;;10.38;1.45;;;;;;;7.16;99.42;101210.25;10211052;28;20051;-65
2022/03/29 09:30:49;;;;;;;10.02;2.00;;;;;;;7.39;98.32;101211.44;10201864;28;20654;-65
2022/03/29 09:35:54;;;;;;;;;;;;;;;7.43;96.28;101219.84;10192002;28;20052;-65
2022/03/29 09:40:51;;;;;;;7.65;1.63;;;;;;;7.59;100.00;101207.75;10200555;28;19961;-65
2022/03/29 09:45:50;;;;;;;10.80;1.67;;;;;;;7.59;93.66;101211.28;10231500;28;20091;-65
2022/03/29 09:50:47;;;;;;;11.20;1.65;;;;;;;7.76;94.43;101182.81;10212671;28;20046;-65
2022/03/29 09:55:43;;;;;;;16.85;2.05;;;;;;;7.88;94.42;101171.53;10191162;28;20759;-65
2022/03/29 10:00:41;;;;;;;7.72;1.55;;;;;;;8.31;91.31;101177.00;10206929;28;20045;-65
2022/03/29 10:05:39;;;;;;;9.45;1.88;;;;;;;8.56;88.18;101170.47;10228600;28;20065;-66
2022/03/29 10:10:36;;;;;;;9.20;1.90;;;;;;;8.56;82.92;101170.47;10221543;28;20053;-65
2022/03/29 10:15:32;;;;;;;14.95;3.33;;;;;;;9.05;82.62;101166.47;10230244;28;20072;-65
2022/03/29 10:20:30;;;;;;;12.30;1.67;;;;;;;9.12;82.23;101157.94;10202304;28;20073;-66
2022/03/29 10:25:28;;;;;;;8.23;1.48;;;;;;;9.16;78.78;101172.59;10190526;28;20709;-65
2022/03/29 10:30:34;;;;;;;12.60;2.03;;;;;;;9.92;73.39;101150.53;10194109;28;20046;-65
2022/03/29 10:35:31;;;;;;;11.43;2.13;;;;;;;9.96;74.20;101152.38;10190776;28;20380;-65
2022/03/29 10:40:36;;;;;;;8.95;1.50;;;;;;;11.09;62.66;101145.31;10206576;28;20543;-65
2022/03/29 10:45:33;;;;;;;8.63;1.35;;;;;;;11.17;55.69;101151.94;10189435;28;20052;-65
2022/03/29 10:50:53;;;;;;;5.43;1.17;;;;;;;10.23;58.22;101151.53;10196187;28;20061;-65
2022/03/29 10:56:15;;;;;;;6.90;1.60;;;;;;;11.17;57.84;101141.00;10229328;28;20045;-65
2022/03/29 11:01:15;;;;;;;7.68;1.73;;;;;;;11.59;53.92;101128.69;10215795;28;20041;-64
2022/03/29 11:06:17;;;;;;;10.75;1.42;;;;;;;12.22;50.66;101125.88;10201794;28;20084;-64
2022/03/29 11:11:58;;;;;;;9.68;1.58;;;;;;;12.75;47.21;101116.59;10207126;28;20562;-65
2022/03/29 11:17:16;;;;;;;9.40;1.50;;;;;;;11.86;49.14;101107.72;10198386;28;20141;-65
2022/03/29 11:22:22;;;;;;;12.40;2.10;;;;;;;11.86;48.13;101120.56;10201927;28;20050;-65
2022/03/29 11:27:27;;;;;;;7.57;1.35;;;;;;;12.28;48.25;101097.22;10218491;28;20045;-65
2022/03/29 11:32:25;;;;;;;7.57;1.58;;;;;;;12.33;49.63;101099.78;10224950;28;20570;-65
2022/03/29 11:37:43;;;;;;;11.38;2.10;;;;;;;12.28;48.21;101097.22;10225825;28;20188;-65
2022/03/29 11:42:53;;;;;;;8.55;1.30;;;;;;;12.37;47.06;101091.72;10224962;28;20045;-65
2022/03/29 11:47:54;;;;;;;7.97;1.25;;;;;;;13.09;42.78;101082.03;10203294;28;20124;-65
2022/03/29 11:52:50;;;;;;;6.07;0.90;;;;;;;13.49;42.67;101081.00;10233113;28;20068;-65
2022/03/29 11:57:47;;;;;;;9.68;1.60;;;;;;;13.68;41.95;101060.22;10228954;28;20053;-65
2022/03/29 12:02:43;;;;;;;7.65;1.38;;;;;;;13.08;43.57;101052.97;10227474;28;20099;-64
2022/03/29 12:07:42;;;;;;;8.95;2.72;;;;;;;13.16;42.96;101065.88;10228258;28;20112;-64
2022/03/29 12:12:39;;;;;;;7.00;1.20;;;;;;;13.13;42.51;101061.00;10226814;28;20534;-64
2022/03/29 12:17:35;;;;;;;9.70;1.77;;;;;;;13.65;42.05;101049.88;10229453;28;20046;-65
2022/03/29 12:22:32;;;;;;;9.88;2.00;;;;;;;14.45;40.88;101048.25;10210194;28;20111;-65
2022/03/29 12:27:28;;;;;;;8.55;1.35;;;;;;;13.49;43.78;101029.59;10193487;28;20149;-65
2022/03/29 12:32:25;;;;;;;9.50;1.98;;;;;;;13.90;41.71;101025.34;10209941;28;20050;-65
2022/03/29 12:37:23;;;;;;;8.27;2.00;;;;;;;14.47;41.24;101019.25;10198550;28;20499;-65
2022/03/29 12:42:22;;;;;;;11.65;1.40;;;;;;;14.69;38.38;101014.56;10223981;28;20053;-65
2022/03/29 12:47:19;;;;;;;7.38;1.20;;;;;;;14.81;38.01;101008.31;10232965;28;20132;-65
2022/03/29 12:52:17;;;;;;;8.75;1.42;;;;;;;14.91;36.74;101016.94;10212750;28;20088;-65
2022/03/29 12:57:16;;;;;;;11.48;1.77;;;;;;;14.76;36.72;101003.84;10232405;28;20129;-65
2022/03/29 13:02:25;;;;;;;8.20;1.38;;;;;;;15.35;36.33;100986.94;10230684;28;20124;-65
2022/03/29 13:07:44;;;;;;;5.50;1.10;;;;;;;15.50;35.08;101001.19;10202594;28;20053;-65
2022/03/29 13:12:49;;;;;;;5.53;1.10;;;;;;;15.42;35.07;101002.09;10225978;28;20061;-65
2022/03/29 13:17:45;;;;;;;11.48;1.95;;;;;;;14.87;37.47;100982.97;10226986;28;20073;-65
2022/03/29 13:22:45;;;;;;;11.02;1.67;;;;;;;14.48;37.59;100982.38;10212821;28;20060;-65
2022/03/29 13:27:41;;;;;;;9.13;1.70;;;;;;;14.80;39.09;100993.72;10192069;28;20072;-65
2022/03/29 13:32:38;;;;;;;7.40;1.83;;;;;;;15.35;36.33;100975.91;10205612;28;20104;-65
2022/03/29 13:37:34;;;;;;;10.82;2.00;;;;;;;14.63;39.82;100974.66;10190422;28;20100;-65
2022/03/29 13:42:31;;;;;;;8.02;1.67;;;;;;;15.36;36.60;100961.00;10216235;28;20049;-65
2022/03/29 13:47:27;;;;;;;12.38;1.50;;;;;;;15.02;36.97;100956.75;10226239;28;20046;-65
2022/03/29 13:52:24;;;;;;;11.20;1.63;;;;;;;15.14;37.66;100942.97;10201168;28;20103;-65
2022/03/29 13:57:20;;;;;;;11.93;1.60;;;;;;;14.46;38.36;100954.38;10227554;28;20077;-65
2022/03/29 14:02:18;;;;;;;6.78;1.08;;;;;;;14.01;37.45;100963.31;10221186;28;20083;-65
2022/03/29 14:07:15;;;;;;;5.28;1.08;;;;;;;13.98;37.97;100953.00;10227593;28;20056;-65
2022/03/29 14:12:11;;;;;;;8.85;1.33;;;;;;;14.28;38.28;100939.19;10202253;28;20072;-65
2022/03/29 14:17:08;;;;;;;7.53;1.10;;;;;;;14.87;36.85;100938.91;10189482;28;20401;-65
2022/03/29 14:22:05;;;;;;;8.15;2.60;;;;;;;15.35;35.80;100937.34;10216467;28;20073;-65
2022/03/29 14:27:02;;;;;;;7.75;1.88;;;;;;;14.69;36.58;100949.34;10228574;28;20053;-65
2022/03/29 14:32:02;;;;;;;9.45;1.95;;;;;;;13.59;37.40;100941.31;10202651;28;20057;-65
2022/03/29 14:36:58;;;;;;;6.70;1.50;;;;;;;13.70;36.40;100946.44;10188543;28;20458;-65
2022/03/29 14:41:55;;;;;;;7.78;1.52;;;;;;;13.74;35.73;100930.88;10201768;28;20110;-65
2022/03/29 14:46:56;;;;;;;8.63;1.33;;;;;;;14.40;35.87;100930.19;10188773;28;20088;-65
2022/03/29 14:51:58;;;;;;;6.22;1.13;;;;;;;13.80;36.73;100921.28;10209119;28;20077;-65
2022/03/29 14:56:54;;;;;;;5.90;1.60;;;;;;;14.66;36.41;100905.16;10226892;28;20131;-65
2022/03/29 15:01:51;;;;;;;6.97;1.60;;;;;;;14.77;36.19;100900.03;10243289;28;20065;-64
2022/03/29 15:06:47;;;;;;;11.38;1.80;;;;;;;14.96;35.72;100905.00;10193152;28;21971;-65
2022/03/29 15:11:44;;;;;;;8.00;1.50;;;;;;;13.23;39.11;100901.44;10218255;28;20114;-65
2022/03/29 15:16:41;;;;;;;8.25;1.52;;;;;;;13.37;40.33;100894.94;10223171;28;20221;-65
2022/03/29 15:21:38;;;;;;;6.25;1.40;;;;;;;13.24;40.30;100881.06;10224164;28;20125;-65
2022/03/29 15:26:34;;;;;;;11.88;4.15;;;;;;;13.61;40.57;100884.09;10211147;28;20041;-65
2022/03/29 15:31:31;;;;;;;10.25;1.98;;;;;;;13.34;41.35;100873.59;10219888;28;20084;-65
2022/03/29 15:36:27;;;;;;;11.43;2.35;;;;;;;13.85;39.72;100883.44;10231173;28;20827;-65
2022/03/29 15:41:24;;;;;;;9.88;1.70;;;;;;;14.24;39.09;100878.53;10227912;28;20080;-65
2022/03/29 15:46:21;;;;;;;8.82;1.23;;;;;;;13.56;40.30;100875.25;10235151;28;20099;-64
2022/03/29 15:51:22;;;;;;;7.90;1.58;;;;;;;13.85;40.01;100871.63;10224793;28;20530;-64
2022/03/29 15:56:20;;;;;;;9.35;1.95;;;;;;;12.93;42.06;100875.09;10235232;28;20050;-64
2022/03/29 16:01:16;;;;;;;12.15;1.88;;;;;;;12.84;42.51;100870.44;10226104;28;20463;-65
2022/03/29 16:06:13;;;;;;;9.18;2.10;;;;;;;12.40;43.46;100875.25;10211927;28;20565;-64
2022/03/29 16:11:10;;;;;;;13.20;3.15;;;;;;;12.98;42.60;100866.69;10221286;28;20045;-64
2022/03/29 16:16:06;;;;;;;10.88;2.67;;;;;;;12.55;43.73;100875.88;10234369;28;20459;-64
2022/03/29 16:21:03;;;;;;;8.75;2.00;;;;;;;12.31;44.38;100865.44;10225680;28;20054;-65
2022/03/29 16:26:01;;;;;;;9.73;2.90;;;;;;;12.22;44.19;100857.25;10212816;28;20128;-65
2022/03/29 16:30:58;;;;;;;10.45;2.22;;;;;;;11.47;46.11;100868.34;10218746;28;20666;-64
2022/03/29 16:35:55;;;;;;;14.18;2.22;;;;;;;10.61;48.06;100866.97;10206405;28;20100;-65
2022/03/29 16:40:51;;;;;;;11.00;1.50;;;;;;;10.87;47.96;100863.53;10201344;28;20476;-65
2022/03/29 16:45:48;;;;;;;9.20;1.80;;;;;;;10.36;49.72;100870.34;10200670;28;20318;-65
2022/03/29 16:50:44;;;;;;;7.10;1.35;;;;;;;9.96;51.68;100862.03;10216176;28;20052;-65
2022/03/29 16:55:41;;;;;;;11.15;2.20;;;;;;;9.78;53.95;100872.00;10206566;28;20077;-64
2022/03/29 17:00:39;;;;;;;10.50;2.08;;;;;;;9.81;56.84;100869.44;10203255;28;20119;-64
2022/03/29 17:05:37;;;;;;;13.18;1.90;;;;;;;9.63;60.76;100875.88;10218973;28;20056;-64
2022/03/29 17:10:33;;;;;;;12.93;1.70;;;;;;;9.19;65.72;100869.16;10209982;28;20049;-64
2022/03/29 17:15:30;;;;;;;16.13;4.03;;;;;;;9.36;68.71;100872.09;10232865;28;20539;-64
2022/03/29 17:20:27;;;;;;;10.43;2.42;;;;;;;9.04;72.13;100876.56;10211264;28;20082;-64
2022/03/29 17:25:23;;;;;;;15.90;2.42;;;;;;;9.16;73.39;100880.69;10201693;28;20128;-64
2022/03/29 17:30:21;;;;;;;9.80;1.77;;;;;;;8.79;76.10;100880.59;10217710;28;20132;-65
2022/03/29 17:35:17;;;;;;;16.02;3.17;;;;;;;8.71;77.38;100880.50;10209485;28;20540;-63
2022/03/29 17:40:16;;;;;;;13.63;2.67;;;;;;;8.68;78.13;100883.81;10204437;28;20077;-65
2022/03/29 17:45:13;;;;;;;10.27;2.63;;;;;;;8.38;80.43;100885.97;10207564;28;20111;-65
2022/03/29 17:50:10;;;;;;;12.60;1.30;;;;;;;8.02;82.54;100883.81;10205078;28;20053;-65
2022/03/29 17:55:08;;;;;;;11.60;1.83;;;;;;;8.09;84.34;100878.78;10214863;28;20088;-66
2022/03/29 18:00:08;;;;;;;12.07;1.95;;;;;;;8.19;82.82;100875.91;10214107;28;20078;-65
2022/03/29 18:05:05;;;;;;;10.23;2.53;;;;;;;8.19;82.39;100873.19;10225636;28;20085;-65
2022/03/29 18:10:03;;;;;;;12.45;2.22;;;;;;;8.00;83.98;100870.47;10212787;28;20115;-66
2022/03/29 18:15:00;;;;;;;8.95;1.67;;;;;;;7.75;86.11;100879.88;10204896;28;20179;-64
2022/03/29 18:19:58;;;;;;;11.00;1.73;;;;;;;7.88;86.11;100872.06;10200369;28;20418;-65
2022/03/29 18:24:55;;;;;;;12.77;2.00;;;;;;;7.53;87.09;100871.47;10200712;28;20084;-64
2022/03/29 18:29:51;;;;;;;12.52;1.90;;;;;;;7.66;88.47;100870.75;10200283;28;20080;-65
2022/03/29 18:34:48;;;;;;;9.98;2.50;;;;;;;7.74;90.39;100875.50;10212070;28;20049;-66
2022/03/29 18:40:07;;;;;;;16.65;2.95;;;;;;;7.89;88.66;100869.03;10204243;28;20075;-64
2022/03/29 18:45:05;;;;;;;16.00;4.03;;;;;;;7.63;91.53;100871.31;10213933;28;20072;-65
2022/03/29 18:50:08;;;;;;;13.85;3.08;;;;;;;7.50;93.53;100875.59;10209515;28;20564;-64
2022/03/29 18:55:06;;;;;;;11.32;2.63;;;;;;;7.59;92.14;100875.75;10189510;28;20054;-64
2022/03/29 19:00:05;;;;;;;16.02;1.50;;;;;;;7.59;92.60;100870.31;10209521;28;20120;-64
2022/03/29 19:05:01;;;;;;;10.38;1.92;;;;;;;7.51;91.64;100879.91;10196522;28;20554;-67
2022/03/29 19:09:58;;;;;;;11.38;3.55;;;;;;;7.44;91.63;100873.22;10201253;28;20049;-64
2022/03/29 19:14:54;;;;;;;10.60;3.67;;;;;;;7.29;92.66;100872.34;10232318;28;20057;-64
2022/03/29 19:19:51;;;;;;;18.02;2.90;;;;;;;7.32;91.28;100866.28;10203131;28;20077;-65
2022/03/29 19:24:49;;;;;;;12.30;2.15;;;;;;;7.35;89.63;100862.97;10195506;28;20066;-63
2022/03/29 19:29:46;;;;;;;15.32;1.80;;;;;;;7.29;90.45;100861.44;10198483;28;20148;-63
2022/03/29 19:34:42;;;;;;;10.52;1.67;;;;;;;7.26;90.36;100859.28;10203354;28;20911;-64
2022/03/29 19:39:39;;;;;;;11.93;2.50;;;;;;;7.16;90.00;100862.16;10213870;28;20072;-64
2022/03/29 19:44:40;;;;;;;9.90;2.40;;;;;;;7.09;90.32;100856.25;10204660;28;20045;-65
2022/03/29 19:49:39;;;;;;;15.77;3.75;;;;;;;7.28;89.01;100859.00;10210022;28;20038;-64
2022/03/29 19:54:36;;;;;;;10.05;1.98;;;;;;;7.11;89.16;100862.22;10219274;28;20077;-65
2022/03/29 19:59:32;;;;;;;13.82;1.88;;;;;;;7.09;90.07;100861.69;10208905;28;20077;-63
2022/03/29 20:04:30;;;;;;;10.35;2.38;;;;;;;7.00;90.71;100852.56;10219951;28;20053;-64
2022/03/29 20:09:27;;;;;;;13.02;1.90;;;;;;;6.99;91.61;100857.22;10193637;28;20087;-64
2022/03/29 20:14:24;;;;;;;14.82;2.00;;;;;;;6.88;93.02;100852.97;10202212;28;20395;-64
2022/03/29 20:19:22;;;;;;;9.20;2.63;;;;;;;6.88;93.68;100845.63;10204914;28;20129;-64
2022/03/29 20:24:19;;;;;;;12.63;2.55;;;;;;;6.97;93.28;100847.72;10210508;28;20077;-64
2022/03/29 20:29:15;;;;;;;13.63;2.28;;;;;;;6.82;94.60;100841.34;10205801;28;20045;-64
2022/03/29 20:34:12;;;;;;;14.32;1.98;;;;;;;6.82;95.31;100843.25;10219406;28;20088;-63
2022/03/29 20:39:09;;;;;;;12.43;2.70;;;;;;;6.79;95.05;100841.94;10201600;28;20482;-64
2022/03/29 20:44:06;;;;;;;11.10;2.05;;;;;;;6.66;95.96;100837.19;10211910;28;20495;-64
2022/03/29 20:49:03;;;;;;;16.10;2.53;;;;;;;6.76;95.52;100834.38;10204839;28;20046;-64
2022/03/29 20:54:02;;;;;;;11.73;2.72;;;;;;;6.74;96.29;100831.13;10208397;28;20061;-64
2022/03/29 20:59:00;;;;;;;9.63;1.98;;;;;;;6.61;97.20;100829.88;10223527;28;21164;-64
2022/03/29 21:03:59;;;;;;;13.50;2.35;;;;;;;6.61;96.89;100826.38;10208180;28;20716;-64
2022/03/29 21:08:56;;;;;;;10.80;2.53;;;;;;;6.56;97.68;100826.44;10223796;28;20042;-64
2022/03/29 21:13:54;;;;;;;10.35;1.60;;;;;;;6.42;99.68;100818.97;10213334;28;20045;-64
2022/03/29 21:18:51;;;;;;;7.40;1.67;;;;;;;6.23;100.00;100812.66;10209587;28;20076;-64
2022/03/29 21:23:48;;;;;;;9.45;1.70;;;;;;;6.41;100.00;100809.22;10212883;28;20132;-64
2022/03/29 21:28:44;;;;;;;11.30;1.38;;;;;;;6.48;100.00;100809.66;10210884;28;20041;-65
2022/03/29 21:33:41;;;;;;;8.10;1.20;;;;;;;6.33;100.00;100807.09;10210768;28;20053;-65
2022/03/29 21:38:37;;;;;;;7.03;2.00;;;;;;;6.37;100.00;100802.72;10208698;28;20511;-64
2022/03/29 21:43:34;;;;;;;13.35;2.10;;;;;;;6.44;100.00;100808.63;10205870;28;20522;-64
2022/03/29 21:48:31;;;;;;;14.90;2.38;;;;;;;6.41;100.00;100798.34;10201875;28;20071;-63
2022/03/29 21:53:27;;;;;;;10.27;1.90;;;;;;;6.25;100.00;100805.03;10210568;28;20466;-64
2022/03/29 21:58:23;;;;;;;8.30;1.27;;;;;;;6.20;100.00;100818.66;10211446;28;20502;-63
2022/03/29 22:03:22;;;;;;;10.00;1.75;;;;;;;6.01;100.00;100804.97;10212425;28;20068;-64
2022/03/29 22:08:19;;;;;;;9.10;1.45;;;;;;;5.96;100.00;100802.28;10211555;28;20136;-64
2022/03/29 22:13:16;;;;;;;10.52;1.50;;;;;;;6.07;100.00;100809.25;10212984;28;20460;-64
2022/03/29 22:18:13;;;;;;;9.75;1.70;;;;;;;5.97;100.00;100799.31;10200806;28;20128;-64
2022/03/29 22:23:09;;;;;;;13.68;1.70;;;;;;;5.86;100.00;100811.31;10209206;28;20053;-63
2022/03/29 22:28:07;;;;;;;11.48;1.50;;;;;;;5.78;100.00;100801.03;10209464;28;20061;-63
2022/03/29 22:33:04;;;;;;;12.77;2.13;;;;;;;5.83;100.00;100801.03;10212547;28;20124;-65
2022/03/29 22:38:04;;;;;;;14.02;2.08;;;;;;;5.78;100.00;100798.31;10213620;28;20072;-65
2022/03/29 22:43:01;;;;;;;9.68;1.98;;;;;;;5.82;100.00;100792.06;10204936;28;20072;-65